Time;durP1;ratioP1;P1;durP2;ratioP2;P2;SDS_P1;SDS_P2;PMS_P1;PMS_P2;Temp;Humidity;BMP_temperature;BMP_pressure;BME280_temperature;BME280_humidity;BME280_pressure;Samples;Min_cycle;Max_cycle;Signal;HPM_P1;HPM_P2
2022/03/07 00:00:56;;;;;;;10.27;6.75;;;2.30;60.30;;;;;;5002768;28;20240;-82
2022/03/07 00:03:25;;;;;;;10.27;6.90;;;2.20;60.40;;;;;;4987081;28;20215;-83
2022/03/07 00:05:53;;;;;;;9.27;6.43;;;2.20;60.40;;;;;;4987855;28;20198;-83
2022/03/07 00:08:21;;;;;;;10.38;6.85;;;2.20;60.50;;;;;;5001921;28;20260;-83
2022/03/07 00:11:04;;;;;;;9.02;6.85;;;2.20;60.40;;;;;;5003299;28;20202;-83
2022/03/07 00:13:32;;;;;;;9.05;6.88;;;2.20;60.40;;;;;;4987879;28;20314;-83
2022/03/07 00:16:02;;;;;;;7.90;5.40;;;2.20;60.50;;;;;;4988081;28;20234;-82
2022/03/07 00:18:30;;;;;;;12.65;7.50;;;2.20;60.40;;;;;;4987514;28;20318;-82
2022/03/07 00:20:58;;;;;;;9.05;5.93;;;2.20;60.40;;;;;;4988903;28;20206;-81
2022/03/07 00:23:26;;;;;;;10.15;7.03;;;2.20;60.40;;;;;;4981799;28;20215;-82
2022/03/07 00:25:54;;;;;;;9.73;6.30;;;2.20;60.40;;;;;;4987260;28;20214;-83
2022/03/07 00:28:23;;;;;;;8.40;6.05;;;2.20;60.40;;;;;;4987969;28;20245;-82
2022/03/07 00:30:51;;;;;;;8.57;6.20;;;2.10;60.30;;;;;;5001110;28;20235;-83
2022/03/07 00:33:20;;;;;;;7.90;5.32;;;2.10;60.30;;;;;;5002075;28;20775;-81
2022/03/07 00:35:49;;;;;;;9.48;6.40;;;2.10;60.30;;;;;;4989096;28;20363;-82
2022/03/07 00:38:17;;;;;;;11.60;7.05;;;2.10;60.20;;;;;;4987979;28;20225;-81
2022/03/07 00:40:46;;;;;;;14.85;8.63;;;2.00;60.20;;;;;;5001155;28;20202;-82
2022/03/07 00:43:14;;;;;;;12.30;6.80;;;2.00;60.20;;;;;;4987240;28;20217;-81
2022/03/07 00:45:43;;;;;;;14.30;8.40;;;2.00;60.30;;;;;;4986930;28;20246;-82
2022/03/07 00:48:11;;;;;;;10.50;7.13;;;2.00;60.30;;;;;;5001582;28;20258;-81
2022/03/07 00:50:42;;;;;;;9.10;6.50;;;2.00;60.20;;;;;;4984314;28;20302;-83
2022/03/07 00:53:12;;;;;;;10.93;6.70;;;2.00;60.20;;;;;;5002229;28;20309;-82
2022/03/07 00:55:40;;;;;;;8.52;6.68;;;2.00;60.10;;;;;;4986585;28;20638;-83
2022/03/07 00:58:11;;;;;;;10.40;7.30;;;1.90;60.00;;;;;;5004094;28;20707;-81
2022/03/07 01:00:40;;;;;;;9.38;7.32;;;1.90;60.00;;;;;;4988772;28;20874;-82
2022/03/07 01:03:12;;;;;;;9.82;7.30;;;1.90;59.90;;;;;;4991858;28;20283;-82
2022/03/07 01:05:42;;;;;;;9.68;7.20;;;1.90;60.00;;;;;;4995278;28;20752;-83
2022/03/07 01:08:10;;;;;;;11.10;7.65;;;1.90;59.90;;;;;;4992971;28;20353;-82
2022/03/07 01:10:38;;;;;;;9.52;7.03;;;1.90;60.00;;;;;;4991437;28;20206;-82
2022/03/07 01:13:07;;;;;;;10.32;7.05;;;1.90;60.00;;;;;;5008631;28;20577;-81
2022/03/07 01:15:35;;;;;;;14.15;7.80;;;1.90;60.00;;;;;;5004387;28;20230;-82
2022/03/07 01:18:04;;;;;;;9.65;7.25;;;1.90;59.90;;;;;;5004251;28;20371;-82
2022/03/07 01:20:34;;;;;;;10.73;8.32;;;1.90;59.80;;;;;;4987466;28;20653;-81
2022/03/07 01:23:02;;;;;;;11.30;8.45;;;1.90;59.90;;;;;;4986715;28;20202;-81
2022/03/07 01:25:30;;;;;;;12.90;8.85;;;1.90;59.80;;;;;;4986663;28;20561;-81
2022/03/07 01:27:58;;;;;;;11.70;8.50;;;1.90;59.90;;;;;;5000791;28;20222;-81
2022/03/07 01:30:26;;;;;;;17.08;9.32;;;1.90;59.80;;;;;;4986156;28;20317;-80
2022/03/07 01:32:54;;;;;;;18.15;9.88;;;1.90;59.80;;;;;;4985321;28;20987;-82
2022/03/07 01:35:25;;;;;;;15.40;10.20;;;1.90;59.80;;;;;;5002177;28;20210;-81
2022/03/07 01:37:55;;;;;;;16.85;10.68;;;1.80;59.60;;;;;;4990929;28;20203;-82
2022/03/07 01:40:24;;;;;;;13.82;9.63;;;1.80;59.60;;;;;;4980303;28;20209;-81
2022/03/07 01:42:52;;;;;;;14.80;10.30;;;1.80;59.60;;;;;;5000249;28;20191;-81
2022/03/07 01:45:21;;;;;;;14.40;10.15;;;1.80;59.60;;;;;;4985004;28;20202;-81
2022/03/07 01:47:49;;;;;;;13.63;10.38;;;1.80;59.60;;;;;;4984989;28;20198;-80
2022/03/07 01:50:20;;;;;;;16.35;10.90;;;1.80;59.50;;;;;;5001372;28;20199;-80
2022/03/07 01:52:52;;;;;;;14.60;10.50;;;1.70;59.40;;;;;;4983809;28;20226;-81
2022/03/07 01:55:22;;;;;;;16.95;10.98;;;1.70;59.40;;;;;;4985012;28;20202;-80
2022/03/07 01:57:56;;;;;;;19.55;11.93;;;1.70;59.40;;;;;;4988830;28;20248;-81
2022/03/07 02:00:26;;;;;;;18.50;12.65;;;1.70;59.40;;;;;;5000406;28;20218;-81
2022/03/07 02:02:54;;;;;;;18.27;11.27;;;1.70;59.50;;;;;;4988704;28;20711;-81
2022/03/07 02:05:30;;;;;;;16.55;12.25;;;1.70;59.50;;;;;;4997415;28;20735;-82
2022/03/07 02:08:03;;;;;;;19.52;12.45;;;1.70;59.40;;;;;;4981189;28;20209;-81
2022/03/07 02:10:43;;;;;;;19.05;11.95;;;1.70;59.40;;;;;;5000559;28;20264;-81
2022/03/07 02:13:15;;;;;;;15.13;10.82;;;1.70;59.40;;;;;;4983738;28;20295;-81
2022/03/07 02:15:53;;;;;;;17.25;11.40;;;1.70;59.40;;;;;;4984298;28;20232;-81
2022/03/07 02:18:22;;;;;;;20.98;12.98;;;1.70;59.50;;;;;;4983870;28;20226;-82
2022/03/07 02:20:57;;;;;;;17.45;11.00;;;1.70;59.50;;;;;;4994198;28;20289;-82
2022/03/07 02:23:27;;;;;;;18.23;11.70;;;1.70;59.50;;;;;;4987767;28;20194;-81
2022/03/07 02:25:55;;;;;;;20.27;11.43;;;1.70;59.50;;;;;;4985310;28;20233;-81
2022/03/07 02:28:23;;;;;;;20.45;12.85;;;1.70;59.50;;;;;;4983872;28;20297;-81
2022/03/07 02:30:52;;;;;;;20.75;12.35;;;1.70;59.50;;;;;;4984263;28;20601;-83
2022/03/07 02:33:20;;;;;;;17.13;11.43;;;1.80;59.50;;;;;;4984576;28;20215;-83
2022/03/07 02:35:48;;;;;;;22.02;12.27;;;1.70;59.40;;;;;;4982510;28;20785;-82
2022/03/07 02:38:17;;;;;;;21.67;13.00;;;1.80;59.40;;;;;;4980967;28;20715;-82
2022/03/07 02:40:49;;;;;;;19.40;12.55;;;1.80;59.40;;;;;;4983825;28;20191;-83
2022/03/07 02:43:19;;;;;;;17.00;11.95;;;1.80;59.30;;;;;;4984854;28;20294;-83
2022/03/07 02:45:48;;;;;;;27.45;13.82;;;1.70;59.30;;;;;;4997939;28;20322;-83
2022/03/07 02:48:16;;;;;;;22.88;12.95;;;1.70;59.30;;;;;;4981867;28;20259;-83
2022/03/07 02:50:45;;;;;;;20.00;12.73;;;1.70;59.30;;;;;;4998541;28;20260;-83
2022/03/07 02:53:14;;;;;;;19.92;12.35;;;1.70;59.30;;;;;;4996283;28;20214;-83
2022/03/07 02:55:42;;;;;;;20.17;11.75;;;1.70;59.20;;;;;;4983914;28;20233;-83
2022/03/07 02:58:11;;;;;;;24.95;13.70;;;1.70;59.30;;;;;;4982373;28;20276;-83
2022/03/07 03:00:40;;;;;;;19.52;12.35;;;1.70;59.20;;;;;;4982389;28;20230;-83
2022/03/07 03:03:08;;;;;;;33.70;13.43;;;1.60;59.20;;;;;;4984293;28;20645;-82
2022/03/07 03:05:36;;;;;;;18.48;12.20;;;1.60;59.20;;;;;;4986936;28;20206;-82
2022/03/07 03:08:05;;;;;;;21.42;12.98;;;1.60;59.10;;;;;;4987172;28;20213;-83
2022/03/07 03:10:33;;;;;;;19.63;12.82;;;1.60;59.20;;;;;;5003072;28;20253;-82
2022/03/07 03:13:01;;;;;;;19.55;13.20;;;1.60;59.20;;;;;;4990966;28;20217;-83
2022/03/07 03:15:30;;;;;;;21.58;13.60;;;1.60;59.20;;;;;;4987065;28;20804;-82
2022/03/07 03:17:58;;;;;;;21.90;13.68;;;1.60;59.20;;;;;;5003470;28;20910;-81
2022/03/07 03:20:26;;;;;;;19.60;12.57;;;1.60;59.20;;;;;;4988485;28;20202;-82
2022/03/07 03:22:54;;;;;;;18.00;11.48;;;1.60;59.10;;;;;;5002726;28;20237;-83
2022/03/07 03:25:22;;;;;;;17.55;10.55;;;1.60;59.10;;;;;;5004250;28;20579;-83
2022/03/07 03:27:50;;;;;;;18.27;11.90;;;1.60;59.00;;;;;;4988656;28;20750;-83
2022/03/07 03:30:18;;;;;;;16.27;11.73;;;1.60;58.90;;;;;;4987108;28;20214;-83
2022/03/07 03:32:47;;;;;;;15.23;10.75;;;1.50;58.80;;;;;;4983404;28;20230;-83
2022/03/07 03:35:15;;;;;;;14.93;10.55;;;1.50;58.70;;;;;;4988462;28;20219;-84
2022/03/07 03:37:43;;;;;;;16.45;11.30;;;1.50;58.80;;;;;;5003857;28;20211;-82
2022/03/07 03:40:12;;;;;;;14.88;10.38;;;1.50;58.80;;;;;;4988256;28;20223;-82
2022/03/07 03:42:41;;;;;;;16.58;10.20;;;1.40;58.80;;;;;;4986948;28;20210;-82
2022/03/07 03:45:11;;;;;;;18.55;9.95;;;1.40;58.70;;;;;;5001084;28;20687;-80
2022/03/07 03:47:39;;;;;;;14.45;10.40;;;1.40;58.70;;;;;;4980582;28;20190;-82
2022/03/07 03:50:11;;;;;;;15.02;10.35;;;1.40;58.60;;;;;;4981943;28;21095;-83
2022/03/07 03:52:40;;;;;;;14.75;10.02;;;1.40;58.70;;;;;;4988003;28;20236;-81
2022/03/07 03:55:10;;;;;;;13.27;10.45;;;1.40;58.50;;;;;;5004295;28;20222;-81
2022/03/07 03:57:38;;;;;;;16.33;10.85;;;1.30;58.60;;;;;;4988397;28;20195;-81
2022/03/07 04:00:08;;;;;;;15.77;11.10;;;1.30;58.60;;;;;;5002987;28;20238;-83
2022/03/07 04:02:42;;;;;;;15.57;10.55;;;1.30;58.60;;;;;;5001055;28;20950;-81
2022/03/07 04:05:12;;;;;;;19.30;10.20;;;1.30;58.60;;;;;;4987673;28;20195;-81
2022/03/07 04:07:41;;;;;;;16.65;9.95;;;1.30;58.60;;;;;;4987272;28;20195;-81
2022/03/07 04:10:10;;;;;;;13.40;9.75;;;1.30;58.50;;;;;;4988808;28;20273;-82
2022/03/07 04:12:38;;;;;;;14.75;10.05;;;1.30;58.40;;;;;;4987674;28;20214;-82
2022/03/07 04:15:07;;;;;;;13.10;9.32;;;1.30;58.30;;;;;;4988644;28;20203;-80
2022/03/07 04:17:38;;;;;;;14.85;10.07;;;1.20;58.20;;;;;;4989256;28;20202;-82
2022/03/07 04:20:07;;;;;;;14.65;10.48;;;1.20;58.20;;;;;;4985869;28;20226;-82
2022/03/07 04:22:37;;;;;;;13.68;9.48;;;1.20;58.20;;;;;;4999975;28;20378;-82
2022/03/07 04:25:06;;;;;;;15.10;8.93;;;1.20;58.20;;;;;;4988685;28;20918;-82
2022/03/07 04:27:34;;;;;;;14.95;9.35;;;1.20;58.30;;;;;;4988992;28;20210;-81
2022/03/07 04:30:04;;;;;;;19.48;10.80;;;1.20;58.30;;;;;;4989657;28;20227;-82
2022/03/07 04:32:36;;;;;;;14.93;11.13;;;1.20;58.20;;;;;;4993077;28;20257;-82
2022/03/07 04:35:06;;;;;;;11.77;8.80;;;1.20;58.30;;;;;;4995054;28;20207;-83
2022/03/07 04:37:34;;;;;;;14.10;9.90;;;1.20;58.20;;;;;;5002760;28;20242;-82
2022/03/07 04:40:05;;;;;;;14.75;9.85;;;1.20;58.20;;;;;;5011367;28;20302;-83
2022/03/07 04:42:34;;;;;;;15.63;10.45;;;1.20;58.10;;;;;;4996927;28;20230;-83
2022/03/07 04:45:02;;;;;;;14.80;9.63;;;1.20;58.20;;;;;;4996527;28;20683;-82
2022/03/07 04:47:30;;;;;;;14.38;9.95;;;1.20;58.10;;;;;;5006402;28;20293;-82
2022/03/07 04:49:58;;;;;;;13.73;10.20;;;1.10;58.10;;;;;;4993235;28;20265;-83
2022/03/07 04:52:26;;;;;;;15.20;10.50;;;1.10;58.10;;;;;;4994195;28;20202;-82
2022/03/07 04:54:54;;;;;;;17.13;10.10;;;1.10;58.20;;;;;;5003454;28;20223;-82
2022/03/07 04:57:23;;;;;;;17.45;11.10;;;1.10;58.20;;;;;;4988544;28;20210;-81
2022/03/07 04:59:51;;;;;;;17.00;11.75;;;1.10;58.20;;;;;;5001865;28;20292;-81
2022/03/07 05:02:19;;;;;;;13.50;10.40;;;1.10;58.30;;;;;;5002460;28;20241;-82
2022/03/07 05:04:47;;;;;;;14.23;10.85;;;1.20;58.30;;;;;;5000599;28;20192;-81
2022/03/07 05:07:15;;;;;;;14.93;11.05;;;1.10;58.20;;;;;;4986603;28;20202;-83
2022/03/07 05:09:44;;;;;;;15.68;11.05;;;1.10;58.20;;;;;;5002177;28;20911;-81
2022/03/07 05:12:13;;;;;;;14.23;10.80;;;1.10;58.20;;;;;;5002654;28;20214;-81
2022/03/07 05:14:43;;;;;;;17.20;10.85;;;1.10;58.30;;;;;;4984964;28;20218;-80
2022/03/07 05:17:11;;;;;;;15.68;11.25;;;1.10;58.30;;;;;;4982542;28;20271;-81
2022/03/07 05:19:38;;;;;;;16.60;10.77;;;1.00;58.40;;;;;;4987267;28;20218;-81
2022/03/07 05:22:08;;;;;;;18.08;11.40;;;1.10;58.40;;;;;;4984656;28;20226;-82
2022/03/07 05:24:36;;;;;;;13.98;10.38;;;1.10;58.50;;;;;;4985066;28;20214;-82
2022/03/07 05:27:05;;;;;;;15.45;11.32;;;1.10;58.40;;;;;;4985907;28;20683;-82
2022/03/07 05:29:34;;;;;;;16.77;11.73;;;1.10;58.40;;;;;;4991519;28;20230;-82
2022/03/07 05:32:04;;;;;;;15.45;11.30;;;1.10;58.40;;;;;;4986440;28;20233;-82
2022/03/07 05:34:32;;;;;;;14.35;10.30;;;1.10;58.40;;;;;;4989771;28;20214;-81
2022/03/07 05:36:59;;;;;;;18.27;12.45;;;1.00;58.40;;;;;;4986448;28;20203;-81
2022/03/07 05:39:27;;;;;;;20.65;11.65;;;1.00;58.50;;;;;;4986712;28;20207;-81
2022/03/07 05:41:55;;;;;;;25.83;11.00;;;1.00;58.60;;;;;;4986301;28;20203;-81
2022/03/07 05:44:23;;;;;;;39.25;35.10;;;1.00;58.60;;;;;;4994160;28;20748;-82
2022/03/07 05:46:51;;;;;;;21.23;15.20;;;1.00;58.60;;;;;;4985619;28;20820;-81
2022/03/07 05:49:21;;;;;;;19.58;12.15;;;1.00;58.80;;;;;;4986422;28;20231;-83
2022/03/07 05:51:49;;;;;;;17.35;11.65;;;1.00;58.80;;;;;;4999241;28;20724;-81
2022/03/07 05:54:17;;;;;;;16.85;11.77;;;1.00;58.80;;;;;;4997585;28;20203;-82
2022/03/07 05:56:45;;;;;;;17.23;11.35;;;1.10;58.80;;;;;;4984408;28;20864;-81
2022/03/07 05:59:13;;;;;;;21.98;12.63;;;1.10;58.60;;;;;;4982474;28;20234;-82
2022/03/07 06:01:40;;;;;;;17.02;11.02;;;1.10;58.60;;;;;;4985624;28;20704;-82
2022/03/07 06:04:09;;;;;;;19.02;11.85;;;1.00;58.80;;;;;;4987357;28;20211;-82
2022/03/07 06:06:38;;;;;;;22.17;14.32;;;1.00;58.60;;;;;;4986467;28;20660;-82
2022/03/07 06:09:07;;;;;;;21.63;14.88;;;1.00;58.80;;;;;;4981395;28;20234;-82
2022/03/07 06:11:36;;;;;;;19.90;13.05;;;1.00;58.80;;;;;;4985970;28;20194;-80
2022/03/07 06:14:04;;;;;;;18.10;12.82;;;1.00;58.90;;;;;;4977894;28;20680;-82
2022/03/07 06:16:32;;;;;;;20.27;12.15;;;1.00;58.80;;;;;;5000367;28;20326;-82
2022/03/07 06:19:00;;;;;;;18.60;13.48;;;1.00;58.80;;;;;;4984550;28;20978;-81
2022/03/07 06:21:28;;;;;;;16.85;12.55;;;1.00;59.00;;;;;;4985842;28;20195;-82
2022/03/07 06:23:57;;;;;;;19.75;12.57;;;1.00;59.00;;;;;;4984593;28;20221;-82
2022/03/07 06:26:25;;;;;;;19.77;13.98;;;1.00;59.00;;;;;;4982214;28;20261;-81
2022/03/07 06:28:53;;;;;;;18.85;13.10;;;1.00;59.00;;;;;;4997744;28;20636;-82
2022/03/07 06:31:21;;;;;;;18.30;13.57;;;1.00;59.00;;;;;;4985909;28;20289;-82
2022/03/07 06:33:49;;;;;;;22.42;14.40;;;1.00;59.10;;;;;;4984071;28;20225;-83
2022/03/07 06:36:17;;;;;;;20.60;12.45;;;1.00;59.10;;;;;;4990519;28;20210;-82
2022/03/07 06:38:45;;;;;;;19.73;12.77;;;1.00;59.10;;;;;;4984058;28;20322;-82
2022/03/07 06:41:14;;;;;;;18.55;12.25;;;1.00;59.10;;;;;;4980030;28;20206;-81
2022/03/07 06:43:43;;;;;;;20.52;11.30;;;1.00;59.20;;;;;;4984860;28;20651;-81
2022/03/07 06:46:11;;;;;;;18.70;12.52;;;1.00;59.10;;;;;;5000300;28;20300;-82
2022/03/07 06:48:40;;;;;;;18.85;12.07;;;1.00;59.20;;;;;;4982749;28;20265;-83
2022/03/07 06:51:08;;;;;;;20.58;13.25;;;1.00;59.10;;;;;;4986143;28;20202;-82
2022/03/07 06:53:36;;;;;;;17.48;13.13;;;1.00;59.20;;;;;;4985612;28;20214;-82
2022/03/07 06:56:04;;;;;;;16.58;11.70;;;1.00;59.10;;;;;;4985342;28;20238;-82
2022/03/07 06:58:33;;;;;;;23.13;12.55;;;1.00;59.00;;;;;;4985621;28;20222;-82
2022/03/07 07:01:01;;;;;;;21.35;13.00;;;1.00;59.10;;;;;;4987113;28;20225;-82
2022/03/07 07:03:30;;;;;;;17.02;11.70;;;1.10;59.10;;;;;;4987837;28;20230;-84
2022/03/07 07:05:58;;;;;;;22.17;14.02;;;1.10;59.00;;;;;;4999920;28;20225;-83
2022/03/07 07:08:26;;;;;;;25.38;15.57;;;1.20;59.00;;;;;;4985319;28;20230;-81
2022/03/07 07:10:54;;;;;;;17.90;11.38;;;1.20;58.90;;;;;;4984925;28;20221;-83
2022/03/07 07:13:22;;;;;;;32.28;16.60;;;1.20;58.60;;;;;;4999745;28;20268;-82
2022/03/07 07:15:55;;;;;;;15.50;11.77;;;1.20;58.60;;;;;;4987312;28;20975;-82
2022/03/07 07:18:23;;;;;;;16.10;11.70;;;1.30;58.50;;;;;;4985633;28;20222;-83
2022/03/07 07:20:51;;;;;;;21.83;12.27;;;1.30;58.10;;;;;;4985187;28;20581;-83
2022/03/07 07:23:21;;;;;;;20.60;12.95;;;1.30;58.40;;;;;;4984075;28;20206;-82
2022/03/07 07:25:49;;;;;;;24.73;15.52;;;1.40;58.20;;;;;;4998458;28;20207;-82
2022/03/07 07:28:17;;;;;;;19.60;12.45;;;1.40;58.00;;;;;;4985403;28;20692;-83
2022/03/07 07:30:46;;;;;;;17.45;10.98;;;1.40;57.60;;;;;;4984544;28;20245;-83
2022/03/07 07:33:15;;;;;;;20.85;10.82;;;1.50;57.60;;;;;;4983181;28;20218;-82
2022/03/07 07:35:44;;;;;;;15.05;11.15;;;1.50;57.60;;;;;;4985199;28;20219;-83
2022/03/07 07:38:12;;;;;;;11.48;8.43;;;1.50;57.70;;;;;;4985488;28;20215;-83
2022/03/07 07:40:40;;;;;;;16.88;9.25;;;1.50;57.20;;;;;;4996405;28;20203;-82
2022/03/07 07:43:08;;;;;;;13.18;8.70;;;1.50;57.40;;;;;;4983699;28;20199;-83
2022/03/07 07:45:36;;;;;;;14.88;9.18;;;1.60;57.40;;;;;;4999427;28;20610;-83
2022/03/07 07:48:05;;;;;;;16.85;9.70;;;1.60;57.20;;;;;;4985762;28;20587;-84
2022/03/07 07:50:34;;;;;;;12.93;10.30;;;1.60;57.50;;;;;;4988289;28;20210;-83
2022/03/07 07:53:02;;;;;;;14.75;10.20;;;1.70;57.40;;;;;;4985163;28;20868;-82
2022/03/07 07:55:30;;;;;;;12.63;9.35;;;1.70;57.40;;;;;;5003364;28;20210;-83
2022/03/07 07:57:58;;;;;;;12.90;8.80;;;1.70;57.40;;;;;;4988044;28;20700;-83
2022/03/07 08:00:27;;;;;;;15.70;8.52;;;1.80;57.40;;;;;;4982700;28;20316;-82
2022/03/07 08:02:55;;;;;;;10.32;8.45;;;1.70;57.10;;;;;;4988004;28;20206;-83
2022/03/07 08:05:23;;;;;;;14.57;9.02;;;1.80;57.10;;;;;;5004704;28;20225;-83
2022/03/07 08:07:52;;;;;;;11.15;9.10;;;1.70;56.90;;;;;;4991586;28;20207;-84
2022/03/07 08:10:20;;;;;;;12.07;8.07;;;1.80;56.90;;;;;;4992223;28;20813;-83
2022/03/07 08:12:49;;;;;;;12.13;8.52;;;1.80;56.80;;;;;;4991599;28;20275;-84
2022/03/07 08:15:19;;;;;;;13.15;8.70;;;1.70;56.80;;;;;;4991625;28;20234;-84
2022/03/07 08:17:50;;;;;;;14.05;9.60;;;1.80;56.90;;;;;;5007215;28;20269;-85
2022/03/07 08:20:19;;;;;;;11.40;8.52;;;1.80;57.00;;;;;;5006954;28;20827;-83
2022/03/07 08:22:47;;;;;;;11.32;8.40;;;1.80;57.00;;;;;;5003835;28;20265;-83
2022/03/07 08:25:18;;;;;;;12.00;8.82;;;1.90;57.20;;;;;;4985595;28;20708;-83
2022/03/07 08:27:46;;;;;;;10.93;7.68;;;1.90;57.20;;;;;;4986601;28;20198;-83
2022/03/07 08:30:16;;;;;;;10.30;7.55;;;2.00;57.10;;;;;;5000773;28;20741;-83
2022/03/07 08:32:44;;;;;;;10.73;8.23;;;2.00;56.80;;;;;;4983043;28;20261;-84
2022/03/07 08:35:13;;;;;;;12.68;8.85;;;2.00;56.60;;;;;;5002648;28;20257;-84
2022/03/07 08:37:43;;;;;;;10.75;8.55;;;2.10;56.80;;;;;;5001217;28;20281;-84
2022/03/07 08:40:11;;;;;;;11.90;8.88;;;2.10;56.60;;;;;;4985738;28;20227;-83
2022/03/07 08:42:41;;;;;;;13.20;8.30;;;2.10;56.50;;;;;;5001622;28;20206;-84
2022/03/07 08:45:10;;;;;;;11.25;7.88;;;2.10;56.50;;;;;;4985846;28;20202;-84
2022/03/07 08:47:40;;;;;;;18.73;13.35;;;2.10;56.70;;;;;;4987551;28;20187;-84
2022/03/07 08:50:11;;;;;;;11.85;9.27;;;2.10;56.80;;;;;;4987333;28;20222;-84
2022/03/07 08:52:40;;;;;;;13.77;8.40;;;2.10;56.70;;;;;;4999498;28;20202;-83
2022/03/07 08:55:09;;;;;;;13.40;9.55;;;2.20;56.50;;;;;;5001468;28;20218;-84
2022/03/07 08:57:37;;;;;;;12.65;9.63;;;2.20;56.60;;;;;;4985311;28;20952;-84
2022/03/07 09:00:10;;;;;;;15.65;11.38;;;2.20;56.60;;;;;;5001860;28;20223;-83
2022/03/07 09:02:46;;;;;;;13.60;9.30;;;2.20;56.70;;;;;;4986109;28;20296;-84
2022/03/07 09:05:15;;;;;;;12.10;9.63;;;2.20;56.60;;;;;;5000567;28;20273;-83
2022/03/07 09:07:43;;;;;;;20.40;10.88;;;2.20;56.70;;;;;;5001490;28;20202;-83
2022/03/07 09:10:11;;;;;;;16.15;10.10;;;2.30;56.60;;;;;;4987782;28;20230;-85
2022/03/07 09:12:39;;;;;;;17.95;11.43;;;2.30;56.50;;;;;;4987380;28;20203;-82
2022/03/07 09:15:09;;;;;;;16.50;11.73;;;2.30;56.60;;;;;;4985052;28;20245;-84
2022/03/07 09:17:37;;;;;;;17.25;10.20;;;2.30;56.60;;;;;;4985080;28;20219;-83
2022/03/07 09:20:06;;;;;;;14.45;11.45;;;2.30;56.60;;;;;;5001468;28;20223;-82
2022/03/07 09:22:35;;;;;;;14.88;10.50;;;2.30;56.80;;;;;;4986268;28;20210;-83
2022/03/07 09:25:05;;;;;;;15.77;10.52;;;2.40;56.80;;;;;;4985124;28;20202;-83
2022/03/07 09:27:33;;;;;;;17.23;11.77;;;2.40;56.50;;;;;;4989537;28;20294;-82
2022/03/07 09:30:01;;;;;;;16.83;11.15;;;2.40;56.50;;;;;;5000933;28;20321;-85
2022/03/07 09:32:30;;;;;;;17.25;11.55;;;2.40;56.60;;;;;;4985504;28;20308;-84
2022/03/07 09:34:58;;;;;;;19.15;10.02;;;2.40;56.60;;;;;;4985825;28;20199;-84
2022/03/07 09:37:26;;;;;;;23.27;12.15;;;2.40;56.50;;;;;;4986050;28;20273;-83
2022/03/07 09:39:54;;;;;;;18.75;11.93;;;2.40;56.50;;;;;;4986619;28;20234;-83
2022/03/07 09:42:23;;;;;;;20.98;12.93;;;2.50;56.50;;;;;;4998983;28;20218;-84
2022/03/07 09:44:52;;;;;;;19.50;11.88;;;2.50;56.40;;;;;;5000745;28;20983;-84
2022/03/07 09:47:21;;;;;;;11.63;8.75;;;2.50;56.50;;;;;;4984185;28;20223;-83
2022/03/07 09:49:50;;;;;;;15.60;8.85;;;2.50;56.60;;;;;;5000766;28;20321;-84
2022/03/07 09:52:18;;;;;;;11.60;8.75;;;2.60;56.70;;;;;;4996150;28;20851;-83
2022/03/07 09:54:46;;;;;;;13.05;9.50;;;2.60;56.30;;;;;;4999964;28;20211;-84
2022/03/07 09:57:14;;;;;;;17.65;11.40;;;2.60;56.50;;;;;;4985730;28;20257;-84
2022/03/07 09:59:42;;;;;;;14.93;10.50;;;2.60;56.30;;;;;;4985299;28;20222;-85
2022/03/07 10:02:13;;;;;;;12.85;8.32;;;2.70;56.30;;;;;;4985062;28;20321;-85
2022/03/07 10:04:45;;;;;;;12.90;9.55;;;2.70;56.30;;;;;;4984571;28;20207;-84
2022/03/07 10:07:14;;;;;;;12.55;8.48;;;2.70;56.10;;;;;;4985563;28;20222;-84
2022/03/07 10:09:42;;;;;;;13.45;8.70;;;2.80;56.20;;;;;;4985488;28;20222;-84
2022/03/07 10:12:11;;;;;;;13.82;9.15;;;2.80;56.20;;;;;;4985705;28;20257;-84
2022/03/07 10:14:44;;;;;;;11.50;8.52;;;2.80;56.30;;;;;;4984566;28;20680;-85
2022/03/07 10:17:20;;;;;;;11.82;8.82;;;2.80;56.50;;;;;;4985100;28;20245;-84
2022/03/07 10:19:49;;;;;;;11.45;8.95;;;2.90;56.50;;;;;;4998718;28;20221;-85
2022/03/07 10:22:21;;;;;;;15.38;10.07;;;3.00;56.40;;;;;;5000343;28;20206;-84
2022/03/07 10:24:58;;;;;;;14.45;9.80;;;3.00;56.20;;;;;;4999734;28;20229;-84
2022/03/07 10:27:28;;;;;;;15.80;10.13;;;3.00;56.20;;;;;;4984881;28;20217;-84
2022/03/07 10:29:57;;;;;;;15.20;10.88;;;3.00;56.20;;;;;;5000099;28;20226;-82
2022/03/07 10:32:25;;;;;;;13.45;11.23;;;3.00;56.30;;;;;;4984879;28;20230;-85
2022/03/07 10:34:53;;;;;;;13.88;10.30;;;3.00;56.30;;;;;;4984430;28;20202;-85
2022/03/07 10:37:34;;;;;;;16.48;10.63;;;3.00;56.30;;;;;;4984498;28;20221;-82
2022/03/07 10:40:02;;;;;;;17.95;11.13;;;3.00;56.40;;;;;;4983559;28;20639;-85
2022/03/07 10:42:30;;;;;;;16.48;11.20;;;3.00;56.40;;;;;;4982413;28;20654;-84
2022/03/07 10:45:07;;;;;;;15.07;9.85;;;3.00;56.50;;;;;;4983813;28;20198;-84
2022/03/07 10:47:34;;;;;;;16.08;10.60;;;3.10;56.40;;;;;;4985416;28;20277;-85
2022/03/07 10:50:04;;;;;;;14.65;9.82;;;3.10;56.40;;;;;;5000403;28;20277;-85
2022/03/07 10:52:38;;;;;;;15.77;10.38;;;3.10;56.50;;;;;;5000235;28;20206;-84
2022/03/07 10:55:07;;;;;;;15.05;9.85;;;3.10;56.50;;;;;;4984182;28;20210;-84
2022/03/07 10:57:37;;;;;;;14.65;10.13;;;3.10;56.60;;;;;;4982328;28;20234;-84
2022/03/07 11:00:08;;;;;;;17.70;11.60;;;3.10;56.60;;;;;;4982695;28;20225;-84
2022/03/07 11:02:40;;;;;;;14.98;11.30;;;3.20;56.60;;;;;;4984929;28;20253;-85
2022/03/07 11:05:10;;;;;;;14.35;10.50;;;3.20;56.60;;;;;;4978945;28;20256;-85
2022/03/07 11:07:42;;;;;;;14.82;11.23;;;3.10;56.60;;;;;;4985349;28;20203;-85
2022/03/07 11:10:13;;;;;;;14.55;10.40;;;3.20;56.90;;;;;;4984283;28;20226;-85
2022/03/07 11:12:41;;;;;;;15.07;11.25;;;3.20;57.00;;;;;;4984061;28;20205;-85
2022/03/07 11:15:12;;;;;;;17.92;11.88;;;3.20;57.10;;;;;;4998602;28;20218;-84
2022/03/07 11:17:42;;;;;;;16.90;11.73;;;3.30;57.00;;;;;;4985439;28;20206;-85
2022/03/07 11:20:13;;;;;;;15.32;11.75;;;3.20;57.00;;;;;;4986847;28;20224;-85
2022/03/07 11:22:45;;;;;;;15.57;10.88;;;3.20;57.10;;;;;;5003946;28;20852;-83
2022/03/07 11:25:16;;;;;;;16.95;12.35;;;3.20;57.20;;;;;;4990342;28;20234;-85
2022/03/07 11:27:44;;;;;;;17.08;12.05;;;3.10;57.30;;;;;;4988959;28;20207;-84
2022/03/07 11:30:19;;;;;;;17.65;11.95;;;3.10;57.30;;;;;;4994733;28;20218;-85
2022/03/07 11:32:51;;;;;;;17.40;11.48;;;3.20;57.30;;;;;;4997815;28;20210;-85
2022/03/07 11:35:19;;;;;;;17.40;11.43;;;3.20;57.20;;;;;;4997734;28;20206;-84
2022/03/07 11:37:49;;;;;;;15.38;10.80;;;3.10;57.20;;;;;;4996399;28;20214;-85
2022/03/07 11:40:23;;;;;;;44.92;27.17;;;3.10;57.00;;;;;;4997798;28;20258;-84
2022/03/07 11:42:52;;;;;;;16.15;11.80;;;3.10;57.10;;;;;;5011288;28;20238;-85
2022/03/07 11:45:22;;;;;;;15.90;12.45;;;3.10;57.20;;;;;;4993540;28;20247;-84
2022/03/07 11:47:50;;;;;;;20.95;11.90;;;3.10;57.30;;;;;;4990950;28;20224;-85
2022/03/07 11:50:22;;;;;;;14.52;10.75;;;3.20;57.50;;;;;;4983601;28;20285;-82
2022/03/07 11:53:03;;;;;;;15.10;10.75;;;3.30;57.50;;;;;;4992077;28;20203;-85
2022/03/07 11:55:33;;;;;;;15.27;11.25;;;3.40;57.40;;;;;;4988954;28;20245;-85
2022/03/07 11:58:04;;;;;;;17.85;11.68;;;3.40;57.40;;;;;;4987982;28;20209;-84
2022/03/07 12:00:35;;;;;;;16.70;11.70;;;3.50;57.40;;;;;;4988962;28;20234;-85
2022/03/07 12:03:11;;;;;;;27.00;10.77;;;3.60;57.30;;;;;;4986171;28;20214;-84
2022/03/07 12:05:41;;;;;;;16.10;11.15;;;3.60;57.30;;;;;;5003279;28;20630;-85
2022/03/07 12:08:16;;;;;;;15.85;10.90;;;3.70;57.20;;;;;;5002202;28;20203;-85
2022/03/07 12:10:54;;;;;;;14.85;11.68;;;3.70;57.00;;;;;;4988159;28;20204;-86
2022/03/07 12:13:29;;;;;;;19.55;12.35;;;3.70;56.80;;;;;;4986154;28;20206;-83
2022/03/07 12:15:58;;;;;;;15.10;11.63;;;3.70;57.00;;;;;;4986055;28;20241;-84
2022/03/07 12:18:29;;;;;;;18.00;12.23;;;3.70;56.50;;;;;;4988053;28;20720;-84
2022/03/07 12:20:59;;;;;;;16.15;11.63;;;3.80;56.50;;;;;;5003152;28;20206;-84
2022/03/07 12:23:33;;;;;;;17.23;10.98;;;3.80;56.40;;;;;;4987176;28;20206;-84
2022/03/07 12:26:08;;;;;;;22.73;12.00;;;3.80;56.20;;;;;;5002654;28;20221;-84
2022/03/07 12:28:40;;;;;;;17.17;11.98;;;3.80;56.20;;;;;;4987811;28;20218;-83
2022/03/07 12:31:09;;;;;;;18.20;12.38;;;3.80;56.10;;;;;;4986994;28;20803;-85
2022/03/07 12:33:38;;;;;;;17.40;12.65;;;3.90;56.20;;;;;;4986813;28;20286;-86
2022/03/07 12:36:26;;;;;;;21.80;11.20;;;3.90;56.00;;;;;;5002488;28;20210;-85
2022/03/07 12:38:57;;;;;;;25.42;14.23;;;3.90;56.10;;;;;;4985809;28;20765;-85
2022/03/07 12:41:30;;;;;;;26.00;15.38;;;3.90;56.10;;;;;;4986459;28;20206;-83
2022/03/07 12:43:58;;;;;;;17.10;12.07;;;3.90;55.90;;;;;;4986763;28;21116;-84
2022/03/07 12:46:26;;;;;;;28.83;16.52;;;3.90;55.70;;;;;;4986935;28;20273;-84
2022/03/07 12:48:56;;;;;;;21.48;13.35;;;3.90;56.00;;;;;;5002085;28;20227;-83
2022/03/07 12:51:25;;;;;;;19.98;13.98;;;3.90;56.10;;;;;;4982582;28;20202;-84